createdAt,value
2022-09-03T00:03:18.561Z,61.37
2022-09-03T00:08:32.954Z,61.72
2022-09-03T00:13:44.117Z,62.02
2022-09-03T00:18:52.989Z,62.97
2022-09-03T00:23:54.642Z,62.72
2022-09-03T00:29:16.804Z,63.15
2022-09-03T00:34:30.808Z,63.21
2022-09-03T00:39:32.561Z,63.62
2022-09-03T00:44:55.231Z,63.97
2022-09-03T00:50:29.473Z,64.21
2022-09-03T00:56:31.221Z,64.16
2022-09-03T01:01:40.803Z,64.70
2022-09-03T01:07:01.114Z,64.98
2022-09-03T01:12:29.835Z,64.75
2022-09-03T01:17:43.331Z,65.11
2022-09-03T01:22:58.420Z,65.44
2022-09-03T01:28:32.821Z,65.21
2022-09-03T01:33:48.644Z,65.30
2022-09-03T01:38:55.717Z,66.06
2022-09-03T01:44:26.776Z,65.82
2022-09-03T01:49:34.005Z,66.37
2022-09-03T01:54:51.802Z,66.79
2022-09-03T01:59:59.414Z,67.06
2022-09-03T02:05:22.792Z,67.55
2022-09-03T02:10:42.283Z,67.63
2022-09-03T02:15:48.509Z,67.59
2022-09-03T02:20:50.298Z,68.12
2022-09-03T02:25:52.982Z,68.36
2022-09-03T02:30:54.816Z,68.40
2022-09-03T02:35:56.526Z,69.09
2022-09-03T02:40:58.553Z,69.36
2022-09-03T02:46:02.763Z,69.90
2022-09-03T02:51:13.809Z,69.54
2022-09-03T02:56:16.240Z,69.46
2022-09-03T03:01:19.722Z,69.96
2022-09-03T03:06:26.101Z,70.56
2022-09-03T03:11:28.227Z,70.76
2022-09-03T03:16:30.145Z,70.52
2022-09-03T03:21:31.827Z,71.39
2022-09-03T03:26:33.634Z,71.55
2022-09-03T03:31:35.309Z,71.59
2022-09-03T03:36:37.034Z,72.08
2022-09-03T03:41:38.705Z,72.48
2022-09-03T03:46:41.139Z,72.47
2022-09-03T03:51:42.801Z,73.23
2022-09-03T03:56:44.462Z,73.08
2022-09-03T04:01:50.513Z,73.51
2022-09-03T04:06:52.236Z,73.02
2022-09-03T04:11:53.922Z,73.78
2022-09-03T04:16:56.463Z,73.87
2022-09-03T04:21:58.183Z,74.04
2022-09-03T04:26:59.843Z,74.57
2022-09-03T04:32:20.310Z,74.87
2022-09-03T04:37:21.997Z,74.43
2022-09-03T04:42:23.659Z,74.37
2022-09-03T04:47:25.482Z,74.75
2022-09-03T04:52:31.388Z,74.74
2022-09-03T04:57:37.787Z,74.99
2022-09-03T05:02:39.477Z,75.48
2022-09-03T05:07:41.197Z,74.98
2022-09-03T05:12:43.130Z,75.26
2022-09-03T05:17:45.047Z,75.19
2022-09-03T05:22:46.724Z,75.13
2022-09-03T05:27:48.421Z,75.86
2022-09-03T05:32:50.114Z,75.34
2022-09-03T05:37:54.770Z,75.48
2022-09-03T05:42:58.512Z,75.41
2022-09-03T05:48:01.663Z,75.21
2022-09-03T05:53:03.324Z,75.27
2022-09-03T05:58:05.004Z,74.86
2022-09-03T06:03:06.763Z,75.30
2022-09-03T06:08:08.476Z,74.98
2022-09-03T06:13:14.339Z,75.53
2022-09-03T06:18:16.025Z,74.72
2022-09-03T06:23:18.188Z,74.88
2022-09-03T06:28:23.216Z,74.68
2022-09-03T06:33:26.379Z,73.53
2022-09-03T06:38:29.549Z,73.55
2022-09-03T06:43:32.797Z,72.48
2022-09-03T06:48:34.847Z,72.15
2022-09-03T06:53:43.899Z,71.69
2022-09-03T06:58:47.317Z,72.07
2022-09-03T07:03:55.938Z,71.75
2022-09-03T07:08:59.720Z,70.89
2022-09-03T07:14:01.789Z,70.71
2022-09-03T07:19:04.703Z,70.12
2022-09-03T07:24:06.375Z,70.20
2022-09-03T07:29:08.116Z,69.65
2022-09-03T07:34:11.521Z,69.31
2022-09-03T07:39:14.157Z,69.00
2022-09-03T07:44:19.509Z,68.24
2022-09-03T07:49:21.999Z,67.97
2022-09-03T07:54:26.038Z,67.97
2022-09-03T07:59:27.816Z,67.71
2022-09-03T08:04:30.420Z,67.06
2022-09-03T08:09:33.007Z,66.48
2022-09-03T08:14:34.742Z,65.63
2022-09-03T08:19:36.404Z,64.56
2022-09-03T08:24:38.536Z,63.46
2022-09-03T08:29:40.209Z,64.04
2022-09-03T08:34:41.944Z,62.13
2022-09-03T08:39:43.742Z,62.16
2022-09-03T08:44:50.222Z,60.83
2022-09-03T08:49:56.199Z,61.07
2022-09-03T08:55:14.586Z,61.36
2022-09-03T09:00:16.476Z,60.33
2022-09-03T09:05:24.813Z,59.49
2022-09-03T09:10:33.249Z,57.71
2022-09-03T09:15:43.489Z,57.02
2022-09-03T09:20:47.684Z,56.44
2022-09-03T09:25:50.156Z,55.21
2022-09-03T09:30:54.056Z,54.09
2022-09-03T09:35:55.775Z,53.66
2022-09-03T09:41:17.272Z,53.68
2022-09-03T09:46:23.172Z,53.03
2022-09-03T09:51:26.272Z,52.78
2022-09-03T09:56:27.941Z,52.42
2022-09-03T10:01:31.941Z,51.68
2022-09-03T10:06:52.361Z,50.15
2022-09-03T10:12:20.084Z,48.67
2022-09-03T10:17:36.874Z,48.07
2022-09-03T10:22:56.197Z,47.14
2022-09-03T10:27:59.901Z,46.96
2022-09-03T10:33:07.856Z,47.17
2022-09-03T10:38:20.895Z,46.74
2022-09-03T10:43:36.104Z,46.46
2022-09-03T10:49:11.607Z,46.50
2022-09-03T10:54:42.036Z,45.05
2022-09-03T10:59:58.957Z,44.76
2022-09-03T11:05:16.944Z,44.18
2022-09-03T11:10:22.999Z,44.48
2022-09-03T11:15:28.390Z,43.23
2022-09-03T11:20:30.376Z,42.75
2022-09-03T11:25:37.384Z,42.98
2022-09-03T11:30:57.530Z,42.63
2022-09-03T11:36:00.900Z,41.29
2022-09-03T11:41:22.966Z,41.85
2022-09-03T11:46:24.530Z,41.52
2022-09-03T11:51:37.594Z,40.44
2022-09-03T11:56:39.769Z,39.63
2022-09-03T12:01:53.199Z,39.90
2022-09-03T12:07:26.015Z,38.82
2022-09-03T12:13:02.977Z,37.21
2022-09-03T12:18:27.513Z,36.25
2022-09-03T12:23:33.986Z,35.86
2022-09-03T12:28:37.696Z,34.56
2022-09-03T12:33:42.913Z,34.71
2022-09-03T12:39:07.982Z,34.29
2022-09-03T12:44:06.372Z,32.54
2022-09-03T12:54:29.686Z,32.10
2022-09-03T12:59:33.040Z,30.73
2022-09-03T13:04:35.371Z,31.74
2022-09-03T13:09:37.969Z,31.07
2022-09-03T13:14:43.899Z,30.95
2022-09-03T13:19:51.527Z,30.67
2022-09-03T13:25:33.957Z,30.24
2022-09-03T13:31:03.588Z,30.19
2022-09-03T13:36:21.638Z,30.11
2022-09-03T13:41:46.235Z,29.75
2022-09-03T13:46:50.351Z,29.37
2022-09-03T13:51:56.786Z,30.17
2022-09-03T13:57:02.659Z,29.48
2022-09-03T14:02:18.734Z,29.61
2022-09-03T14:07:42.311Z,28.73
2022-09-03T14:12:46.700Z,28.17
2022-09-03T14:17:55.959Z,27.02
2022-09-03T14:23:04.462Z,26.61
2022-09-03T14:28:20.064Z,26.58
2022-09-03T14:33:25.534Z,26.01
2022-09-03T14:38:57.882Z,25.74
2022-09-03T14:44:27.788Z,26.92
2022-09-03T14:50:00.299Z,26.25
2022-09-03T14:55:07.598Z,25.78
2022-09-03T15:00:19.640Z,25.91
2022-09-03T15:05:32.681Z,26.16
2022-09-03T15:10:39.382Z,26.01
2022-09-03T15:15:41.293Z,26.20
2022-09-03T15:20:50.488Z,29.48
2022-09-03T15:26:14.921Z,29.26
2022-09-03T15:31:34.173Z,27.41
2022-09-03T15:36:43.716Z,27.94
2022-09-03T15:42:04.627Z,26.50
2022-09-03T15:47:13.893Z,27.52
2022-09-03T15:52:27.579Z,27.77
2022-09-03T15:57:39.184Z,26.89
2022-09-03T16:02:52.253Z,27.31
2022-09-03T16:08:31.783Z,27.12
2022-09-03T16:13:43.881Z,27.53
2022-09-03T16:18:56.775Z,27.65
2022-09-03T16:24:00.143Z,27.57
2022-09-03T16:29:08.947Z,27.81
2022-09-03T16:34:18.891Z,28.51
2022-09-03T16:39:26.623Z,28.93
2022-09-03T16:44:48.928Z,29.12
2022-09-03T16:50:08.530Z,29.31
2022-09-03T16:55:28.416Z,30.09
2022-09-03T17:00:42.388Z,30.34
2022-09-03T17:05:56.237Z,31.10
2022-09-03T17:11:04.230Z,31.48
2022-09-03T17:16:25.126Z,31.96
2022-09-03T17:22:02.136Z,32.30
2022-09-03T17:27:16.375Z,33.25
2022-09-03T17:32:23.026Z,33.69
2022-09-03T17:38:09.879Z,34.65
2022-09-03T17:43:35.899Z,35.12
2022-09-03T17:49:06.260Z,35.84
2022-09-03T17:54:13.009Z,36.49
2022-09-03T17:59:16.588Z,37.55
2022-09-03T18:04:27.762Z,38.26
2022-09-03T18:09:40.143Z,38.60
2022-09-03T18:14:47.911Z,39.13
2022-09-03T18:20:13.331Z,39.74
2022-09-03T18:25:33.629Z,40.58
2022-09-03T18:30:54.173Z,41.19
2022-09-03T18:36:14.531Z,41.47
2022-09-03T18:42:16.245Z,42.53
2022-09-03T18:48:09.104Z,42.45
2022-09-03T18:53:49.183Z,43.30
2022-09-03T18:59:37.353Z,43.48
2022-09-03T19:05:18.034Z,44.11
2022-09-03T19:10:52.854Z,44.76
2022-09-03T19:16:16.244Z,45.28
2022-09-03T19:22:02.136Z,45.29
2022-09-03T19:27:55.313Z,45.70
2022-09-03T19:33:35.530Z,46.17
2022-09-03T19:39:08.588Z,47.27
2022-09-03T19:44:46.470Z,47.28
2022-09-03T19:50:13.129Z,47.26
2022-09-03T19:55:37.489Z,47.58
2022-09-03T20:00:57.533Z,47.82
2022-09-03T20:06:19.551Z,48.23
2022-09-03T20:11:21.568Z,48.78
2022-09-03T20:17:04.844Z,48.94
2022-09-03T20:22:40.284Z,49.57
2022-09-03T20:27:47.817Z,49.60
2022-09-03T20:33:15.885Z,50.05
2022-09-03T20:38:58.844Z,50.55
2022-09-03T20:44:06.529Z,50.76
2022-09-03T20:49:40.402Z,51.12
2022-09-03T20:55:11.357Z,51.10
2022-09-03T21:00:18.408Z,51.30
2022-09-03T21:05:43.509Z,51.64
2022-09-03T21:10:54.962Z,51.70
2022-09-03T21:16:34.619Z,52.13
2022-09-03T21:21:59.642Z,52.14
2022-09-03T21:27:15.715Z,52.37
2022-09-03T21:32:22.339Z,52.90
2022-09-03T21:37:24.210Z,53.07
2022-09-03T21:42:43.944Z,53.28
2022-09-03T21:47:49.406Z,53.83
2022-09-03T21:53:10.537Z,53.73
2022-09-03T21:58:40.393Z,54.04
2022-09-03T22:03:42.130Z,54.43
2022-09-03T22:08:49.175Z,54.71
2022-09-03T22:13:58.870Z,54.74
2022-09-03T22:19:00.534Z,55.23
2022-09-03T22:24:24.497Z,55.48
2022-09-03T22:29:51.044Z,55.45
2022-09-03T22:35:32.003Z,56.01
2022-09-03T22:40:53.833Z,56.29
2022-09-03T22:46:19.253Z,56.04
2022-09-03T22:51:21.864Z,56.48
2022-09-03T22:56:23.839Z,56.55
2022-09-03T23:01:49.237Z,56.66
2022-09-03T23:07:03.606Z,56.88
2022-09-03T23:12:15.250Z,56.90
2022-09-03T23:22:31.281Z,58.09
2022-09-03T23:27:44.837Z,58.26
2022-09-03T23:32:56.765Z,58.13
2022-09-03T23:38:27.032Z,58.27
2022-09-03T23:43:54.213Z,58.85
2022-09-03T23:49:18.508Z,58.95
2022-09-03T23:54:29.712Z,59.12
2022-09-03T23:59:57.709Z,59.63
